createdAt,value
2023-04-25T00:00:46.692Z,0.00
2023-04-25T00:01:46.656Z,0.00
2023-04-25T00:02:46.813Z,0.00
2023-04-25T00:03:46.933Z,0.00
2023-04-25T00:04:46.802Z,0.00
2023-04-25T00:05:46.727Z,0.00
2023-04-25T00:06:46.611Z,0.00
2023-04-25T00:07:46.608Z,0.00
2023-04-25T00:08:46.608Z,0.00
2023-04-25T00:09:46.588Z,0.00
2023-04-25T00:10:46.575Z,0.00
2023-04-25T00:11:46.587Z,0.00
2023-04-25T00:12:46.537Z,0.00
2023-04-25T00:13:46.666Z,0.00
2023-04-25T00:14:46.556Z,0.00
2023-04-25T00:15:46.584Z,0.00
2023-04-25T00:16:46.550Z,0.00
2023-04-25T00:17:46.636Z,0.00
2023-04-25T00:18:46.517Z,0.00
2023-04-25T00:19:46.482Z,0.00
2023-04-25T00:20:46.541Z,0.00
2023-04-25T00:21:46.476Z,0.00
2023-04-25T00:22:46.472Z,0.00
2023-04-25T00:23:46.430Z,0.00
2023-04-25T00:24:46.425Z,0.00
2023-04-25T00:25:46.448Z,0.00
2023-04-25T00:26:46.421Z,0.00
2023-04-25T00:27:46.490Z,0.00
2023-04-25T00:28:46.437Z,0.00
2023-04-25T00:29:46.436Z,0.00
2023-04-25T00:30:46.403Z,0.00
2023-04-25T00:31:46.403Z,0.00
2023-04-25T00:32:46.375Z,0.00
2023-04-25T00:33:46.354Z,0.00
2023-04-25T00:34:46.341Z,0.00
2023-04-25T00:35:46.334Z,0.00
2023-04-25T00:36:46.328Z,0.00
2023-04-25T00:37:46.334Z,0.00
2023-04-25T00:38:46.298Z,0.00
2023-04-25T00:39:46.336Z,0.00
2023-04-25T00:40:46.271Z,0.00
2023-04-25T00:41:46.292Z,0.00
2023-04-25T00:42:46.253Z,0.00
2023-04-25T00:43:46.223Z,0.00
2023-04-25T00:44:46.252Z,0.00
2023-04-25T00:45:46.218Z,0.00
2023-04-25T00:46:46.291Z,0.00
2023-04-25T00:47:46.342Z,0.00
2023-04-25T00:48:46.198Z,0.00
2023-04-25T00:49:46.271Z,0.00
2023-04-25T00:50:46.216Z,0.00
2023-04-25T00:51:46.164Z,0.00
2023-04-25T00:52:46.172Z,0.00
2023-04-25T00:53:46.165Z,0.00
2023-04-25T00:54:46.163Z,0.00
2023-04-25T00:55:46.146Z,0.00
2023-04-25T00:56:46.134Z,0.00
2023-04-25T00:57:46.111Z,0.00
2023-04-25T00:58:46.099Z,0.00
2023-04-25T00:59:46.093Z,0.00
2023-04-25T01:00:46.116Z,0.00
2023-04-25T01:01:46.133Z,0.00
2023-04-25T01:02:46.180Z,0.00
2023-04-25T01:03:46.122Z,0.00
2023-04-25T01:04:46.045Z,0.00
2023-04-25T01:05:46.030Z,0.00
2023-04-25T01:06:46.048Z,0.00
2023-04-25T01:07:46.003Z,0.00
2023-04-25T01:08:46.022Z,0.00
2023-04-25T01:09:46.004Z,0.00
2023-04-25T01:10:46.016Z,0.00
2023-04-25T01:11:45.977Z,0.00
2023-04-25T01:12:45.960Z,0.00
2023-04-25T01:13:45.983Z,0.00
2023-04-25T01:14:45.923Z,0.00
2023-04-25T01:15:45.968Z,0.00
2023-04-25T01:16:46.070Z,0.00
2023-04-25T01:17:45.926Z,0.00
2023-04-25T01:18:45.922Z,0.00
2023-04-25T01:19:45.859Z,0.00
2023-04-25T01:20:45.876Z,0.00
2023-04-25T01:21:45.853Z,0.00
2023-04-25T01:22:45.895Z,0.00
2023-04-25T01:23:45.847Z,0.00
2023-04-25T01:24:45.846Z,0.00
2023-04-25T01:25:45.843Z,0.00
2023-04-25T01:26:45.791Z,0.00
2023-04-25T01:27:45.797Z,0.00
2023-04-25T01:28:45.793Z,0.00
2023-04-25T01:29:45.766Z,0.00
2023-04-25T01:30:45.776Z,0.00
2023-04-25T01:31:45.783Z,0.00
2023-04-25T01:32:45.791Z,0.00
2023-04-25T01:33:45.718Z,0.00
2023-04-25T01:34:45.757Z,0.00
2023-04-25T01:35:45.707Z,0.00
2023-04-25T01:36:45.690Z,0.00
2023-04-25T01:37:45.699Z,0.00
2023-04-25T01:38:45.685Z,0.00
2023-04-25T01:39:45.707Z,0.00
2023-04-25T01:40:45.671Z,0.00
2023-04-25T01:41:45.680Z,0.00
2023-04-25T01:42:45.629Z,0.00
2023-04-25T01:43:45.688Z,0.00
2023-04-25T01:44:45.692Z,0.00
2023-04-25T01:45:45.664Z,0.00
2023-04-25T01:46:45.583Z,0.00
2023-04-25T01:47:45.630Z,0.00
2023-04-25T01:48:45.604Z,0.00
2023-04-25T01:49:45.549Z,0.00
2023-04-25T01:50:45.590Z,0.00
2023-04-25T01:51:45.578Z,0.00
2023-04-25T01:52:45.579Z,0.00
2023-04-25T01:53:45.550Z,0.00
2023-04-25T01:54:45.564Z,0.00
2023-04-25T01:55:45.493Z,0.00
2023-04-25T01:56:45.518Z,0.00
2023-04-25T01:57:45.509Z,0.00
2023-04-25T01:58:45.508Z,0.00
2023-04-25T01:59:45.461Z,0.00
2023-04-25T02:00:45.464Z,0.00
2023-04-25T02:01:45.536Z,0.00
2023-04-25T02:02:45.630Z,0.00
2023-04-25T02:03:45.707Z,0.00
2023-04-25T02:04:45.432Z,0.00
2023-04-25T02:05:45.414Z,0.00
2023-04-25T02:06:45.422Z,0.00
2023-04-25T02:07:45.395Z,0.00
2023-04-25T02:08:45.382Z,0.00
2023-04-25T02:09:45.392Z,0.00
2023-04-25T02:10:45.366Z,0.00
2023-04-25T02:11:45.359Z,0.00
2023-04-25T02:12:45.333Z,0.00
2023-04-25T02:13:45.323Z,0.00
2023-04-25T02:14:45.331Z,0.00
2023-04-25T02:15:45.378Z,0.00
2023-04-25T02:16:45.364Z,0.00
2023-04-25T02:17:45.343Z,0.00
2023-04-25T02:18:45.317Z,0.00
2023-04-25T02:19:45.313Z,0.00
2023-04-25T02:20:45.288Z,0.00
2023-04-25T02:21:45.256Z,0.00
2023-04-25T02:22:45.267Z,0.00
2023-04-25T02:23:45.229Z,0.00
2023-04-25T02:24:45.246Z,0.00
2023-04-25T02:25:45.207Z,0.00
2023-04-25T02:26:45.183Z,0.00
2023-04-25T02:27:45.232Z,0.00
2023-04-25T02:28:45.162Z,0.00
2023-04-25T02:29:45.212Z,0.00
2023-04-25T02:30:45.162Z,0.00
2023-04-25T02:31:45.207Z,0.00
2023-04-25T02:32:45.175Z,0.00
2023-04-25T02:33:45.142Z,0.00
2023-04-25T02:34:45.117Z,0.00
2023-04-25T02:35:45.104Z,0.00
2023-04-25T02:36:45.090Z,0.00
2023-04-25T02:37:45.093Z,0.00
2023-04-25T02:38:45.077Z,0.00
2023-04-25T02:39:45.082Z,0.00
2023-04-25T02:40:45.055Z,0.00
2023-04-25T02:41:45.019Z,0.00
2023-04-25T02:42:45.051Z,0.00
2023-04-25T02:43:45.029Z,0.00
2023-04-25T02:44:45.009Z,0.00
2023-04-25T02:45:45.008Z,0.00
2023-04-25T02:46:45.034Z,0.00
2023-04-25T02:47:45.029Z,0.00
2023-04-25T02:48:44.994Z,0.00
2023-04-25T02:49:44.945Z,0.00
2023-04-25T02:50:44.980Z,0.00
2023-04-25T02:51:44.958Z,0.00
2023-04-25T02:52:44.959Z,0.00
2023-04-25T02:53:44.922Z,0.00
2023-04-25T02:54:44.898Z,0.00
2023-04-25T02:55:44.882Z,0.00
2023-04-25T02:56:44.891Z,0.00
2023-04-25T02:57:44.906Z,0.00
2023-04-25T02:58:44.878Z,0.00
2023-04-25T02:59:44.846Z,0.00
2023-04-25T03:00:44.890Z,0.00
2023-04-25T03:01:44.830Z,0.00
2023-04-25T03:02:44.901Z,0.00
2023-04-25T03:03:44.844Z,0.00
2023-04-25T03:04:44.816Z,0.00
2023-04-25T03:05:44.795Z,0.00
2023-04-25T03:06:44.799Z,0.00
2023-04-25T03:07:44.813Z,0.00
2023-04-25T03:08:44.745Z,0.00
2023-04-25T03:09:44.736Z,0.00
2023-04-25T03:10:44.727Z,1.00
2023-04-25T03:11:44.761Z,0.00
2023-04-25T03:12:44.708Z,0.00
2023-04-25T03:13:44.722Z,0.00
2023-04-25T03:14:44.721Z,0.00
2023-04-25T03:15:44.665Z,1.00
2023-04-25T03:16:44.702Z,1.00
2023-04-25T03:17:44.637Z,1.00
2023-04-25T03:18:44.611Z,1.00
2023-04-25T03:19:44.611Z,1.00
2023-04-25T03:20:44.671Z,2.00
2023-04-25T03:21:44.625Z,2.00
2023-04-25T03:22:44.626Z,2.00
2023-04-25T03:23:44.549Z,1.00
2023-04-25T03:24:44.534Z,1.00
2023-04-25T03:25:44.538Z,3.00
2023-04-25T03:26:44.521Z,4.00
2023-04-25T03:27:44.537Z,4.00
2023-04-25T03:28:44.564Z,4.00
2023-04-25T03:29:44.515Z,5.00
2023-04-25T03:30:44.487Z,4.00
2023-04-25T03:31:44.490Z,4.00
2023-04-25T03:32:44.539Z,9.00
2023-04-25T03:33:44.451Z,9.00
2023-04-25T03:34:44.476Z,8.00
2023-04-25T03:35:44.509Z,8.00
2023-04-25T03:36:44.444Z,12.00
2023-04-25T03:37:44.418Z,13.00
2023-04-25T03:38:44.477Z,15.00
2023-04-25T03:39:44.447Z,19.00
2023-04-25T03:40:44.443Z,18.00
2023-04-25T03:41:44.545Z,20.00
2023-04-25T03:42:45.115Z,21.00
2023-04-25T03:43:45.335Z,23.00
2023-04-25T03:44:44.409Z,27.00
2023-04-25T03:45:44.379Z,36.00
2023-04-25T03:46:44.329Z,35.00
2023-04-25T03:47:44.347Z,40.00
2023-04-25T03:48:44.299Z,43.00
2023-04-25T03:49:44.277Z,50.00
2023-04-25T03:50:44.289Z,52.00
2023-04-25T03:51:44.279Z,50.00
2023-04-25T03:52:44.294Z,50.00
2023-04-25T03:53:44.245Z,60.00
2023-04-25T03:54:44.256Z,66.00
2023-04-25T03:55:44.244Z,68.00
2023-04-25T03:56:44.218Z,76.00
2023-04-25T03:57:44.234Z,82.00
2023-04-25T03:58:44.321Z,97.00
2023-04-25T03:59:44.184Z,108.00
2023-04-25T04:00:44.193Z,112.00
2023-04-25T04:01:44.196Z,118.00
2023-04-25T04:02:45.524Z,125.00
2023-04-25T04:03:44.325Z,134.00
2023-04-25T04:04:44.426Z,152.00
2023-04-25T04:05:44.146Z,157.00
2023-04-25T04:06:44.122Z,160.00
2023-04-25T04:07:44.125Z,166.00
2023-04-25T04:08:44.162Z,170.00
2023-04-25T04:09:44.087Z,181.00
2023-04-25T04:10:44.092Z,185.00
2023-04-25T04:11:44.075Z,195.00
2023-04-25T04:12:44.054Z,201.00
2023-04-25T04:13:44.064Z,207.00
2023-04-25T04:14:44.045Z,216.00
2023-04-25T04:15:44.150Z,225.00
2023-04-25T04:16:44.051Z,227.00
2023-04-25T04:17:44.049Z,231.00
2023-04-25T04:18:44.011Z,233.00
2023-04-25T04:19:44.005Z,264.00
2023-04-25T04:20:43.995Z,274.00
2023-04-25T04:21:43.951Z,289.00
2023-04-25T04:22:43.982Z,303.00
2023-04-25T04:23:43.952Z,314.00
2023-04-25T04:24:43.938Z,332.00
2023-04-25T04:25:43.953Z,343.00
2023-04-25T04:26:43.971Z,359.00
2023-04-25T04:27:43.896Z,368.00
2023-04-25T04:28:43.914Z,383.00
2023-04-25T04:29:43.904Z,398.00
2023-04-25T04:30:43.876Z,423.00
2023-04-25T04:31:43.894Z,435.00
2023-04-25T04:32:43.885Z,448.00
2023-04-25T04:33:43.868Z,477.00
2023-04-25T04:34:43.842Z,535.00
2023-04-25T04:35:43.805Z,559.00
2023-04-25T04:36:43.827Z,584.00
2023-04-25T04:37:43.850Z,626.00
2023-04-25T04:38:43.791Z,645.00
2023-04-25T04:39:43.915Z,660.00
2023-04-25T04:40:43.772Z,678.00
2023-04-25T04:41:43.858Z,682.00
2023-04-25T04:42:43.779Z,710.00
2023-04-25T04:43:43.761Z,737.00
2023-04-25T04:44:43.743Z,769.00
2023-04-25T04:45:43.702Z,791.00
2023-04-25T04:46:43.776Z,811.00
2023-04-25T04:47:43.768Z,784.00
2023-04-25T04:48:43.722Z,785.00
2023-04-25T04:49:43.697Z,770.00
2023-04-25T04:50:43.673Z,776.00
2023-04-25T04:51:43.648Z,787.00
2023-04-25T04:52:43.712Z,715.00
2023-04-25T04:53:43.636Z,656.00
2023-04-25T04:54:43.619Z,739.00
2023-04-25T04:55:43.611Z,879.00
2023-04-25T04:56:43.678Z,893.00
2023-04-25T04:57:43.597Z,838.00
2023-04-25T04:58:43.602Z,802.00
2023-04-25T04:59:43.560Z,815.00
2023-04-25T05:00:43.674Z,855.00
2023-04-25T05:01:43.560Z,889.00
2023-04-25T05:02:43.652Z,935.00
2023-04-25T05:03:43.690Z,890.00
2023-04-25T05:04:43.611Z,722.00
2023-04-25T05:05:43.573Z,587.00
2023-04-25T05:06:43.494Z,552.00
2023-04-25T05:07:43.521Z,572.00
2023-04-25T05:08:43.515Z,614.00
2023-04-25T05:09:43.510Z,679.00
2023-04-25T05:10:43.497Z,739.00
2023-04-25T05:11:44.174Z,720.00
2023-04-25T05:12:43.445Z,748.00
2023-04-25T05:13:43.454Z,777.00
2023-04-25T05:14:44.127Z,817.00
2023-04-25T05:15:43.443Z,820.00
2023-04-25T05:16:43.441Z,751.00
2023-04-25T05:17:43.430Z,872.00
2023-04-25T05:18:43.453Z,961.00
2023-04-25T05:19:43.379Z,1032.00
2023-04-25T05:20:43.390Z,1065.00
2023-04-25T05:21:43.371Z,1000.00
2023-04-25T05:22:43.454Z,923.00
2023-04-25T05:23:43.389Z,832.00
2023-04-25T05:24:43.410Z,738.00
2023-04-25T05:25:43.426Z,732.00
2023-04-25T05:26:43.278Z,736.00
2023-04-25T05:27:43.293Z,824.00
2023-04-25T05:28:43.385Z,1020.00
2023-04-25T05:29:43.280Z,982.00
2023-04-25T05:30:43.316Z,1061.00
2023-04-25T05:31:43.311Z,1055.00
2023-04-25T05:32:43.266Z,894.00
2023-04-25T05:33:43.321Z,838.00
2023-04-25T05:34:43.326Z,839.00
2023-04-25T05:35:43.321Z,810.00
2023-04-25T05:36:43.215Z,842.00
2023-04-25T05:37:43.189Z,901.00
2023-04-25T05:38:43.179Z,1006.00
2023-04-25T05:39:43.325Z,993.00
2023-04-25T05:40:43.156Z,1048.00
2023-04-25T05:41:43.161Z,1065.00
2023-04-25T05:42:43.144Z,1069.00
2023-04-25T05:43:43.253Z,1108.00
2023-04-25T05:44:43.228Z,1120.00
2023-04-25T05:45:43.131Z,1136.00
2023-04-25T05:46:43.299Z,1016.00
2023-04-25T05:47:43.094Z,984.00
2023-04-25T05:48:43.128Z,1021.00
2023-04-25T05:49:43.227Z,1060.00
2023-04-25T05:50:43.090Z,1134.00
2023-04-25T05:51:43.084Z,1041.00
2023-04-25T05:52:43.024Z,951.00
2023-04-25T05:53:43.052Z,1026.00
2023-04-25T05:54:43.045Z,1247.00
2023-04-25T05:55:43.017Z,1213.00
2023-04-25T05:56:43.026Z,1063.00
2023-04-25T05:57:43.763Z,954.00
2023-04-25T05:58:42.982Z,919.00
2023-04-25T05:59:42.994Z,993.00
2023-04-25T06:00:42.956Z,958.00
2023-04-25T06:01:42.928Z,914.00
2023-04-25T06:02:43.050Z,926.00
2023-04-25T06:03:43.203Z,1100.00
2023-04-25T06:04:43.051Z,1310.00
2023-04-25T06:05:42.923Z,1185.00
2023-04-25T06:06:42.962Z,1101.00
2023-04-25T06:07:43.069Z,1062.00
2023-04-25T06:08:42.882Z,1036.00
2023-04-25T06:09:42.876Z,983.00
2023-04-25T06:10:42.854Z,989.00
2023-04-25T06:11:42.872Z,1035.00
2023-04-25T06:12:42.845Z,960.00
2023-04-25T06:13:42.816Z,1095.00
2023-04-25T06:14:42.817Z,1308.00
2023-04-25T06:15:42.952Z,1266.00
2023-04-25T06:16:42.767Z,1208.00
2023-04-25T06:17:42.817Z,1402.00
2023-04-25T06:18:42.765Z,1317.00
2023-04-25T06:19:42.778Z,1234.00
2023-04-25T06:20:42.768Z,1181.00
2023-04-25T06:21:42.824Z,1287.00
2023-04-25T06:22:42.730Z,1266.00
2023-04-25T06:23:42.723Z,1427.00
2023-04-25T06:24:42.720Z,1640.00
2023-04-25T06:25:42.715Z,1682.00
2023-04-25T06:26:42.757Z,2022.00
2023-04-25T06:27:42.672Z,2171.00
2023-04-25T06:28:42.702Z,2156.00
2023-04-25T06:29:42.689Z,2198.00
2023-04-25T06:30:42.730Z,1959.00
2023-04-25T06:31:42.802Z,1907.00
2023-04-25T06:32:42.757Z,1948.00
2023-04-25T06:33:42.648Z,1912.00
2023-04-25T06:34:42.725Z,1567.00
2023-04-25T06:35:42.571Z,1592.00
2023-04-25T06:36:42.619Z,2033.00
2023-04-25T06:37:42.575Z,2164.00
2023-04-25T06:38:42.619Z,1859.00
2023-04-25T06:39:42.540Z,1529.00
2023-04-25T06:40:42.574Z,1366.00
2023-04-25T06:41:42.586Z,1351.00
2023-04-25T06:42:42.530Z,1362.00
2023-04-25T06:43:42.553Z,1388.00
2023-04-25T06:44:42.560Z,1404.00
2023-04-25T06:45:42.589Z,1417.00
2023-04-25T06:46:42.553Z,1773.00
2023-04-25T06:47:42.510Z,1900.00
2023-04-25T06:48:42.550Z,1792.00
2023-04-25T06:49:42.642Z,1392.00
2023-04-25T06:50:42.531Z,1119.00
2023-04-25T06:51:42.437Z,1233.00
2023-04-25T06:52:42.473Z,1358.00
2023-04-25T06:53:42.463Z,1805.00
2023-04-25T06:54:42.410Z,2182.00
2023-04-25T06:55:42.418Z,2403.00
2023-04-25T06:56:42.501Z,2103.00
2023-04-25T06:57:42.401Z,1526.00
2023-04-25T06:58:42.365Z,1236.00
2023-04-25T06:59:42.339Z,1266.00
2023-04-25T07:00:42.342Z,1309.00
2023-04-25T07:01:42.453Z,1161.00
2023-04-25T07:02:42.489Z,1072.00
2023-04-25T07:03:42.458Z,1330.00
2023-04-25T07:04:42.557Z,1427.00
2023-04-25T07:05:42.387Z,1389.00
2023-04-25T07:06:42.323Z,1393.00
2023-04-25T07:07:42.276Z,1405.00
2023-04-25T07:08:42.257Z,1445.00
2023-04-25T07:09:42.263Z,1627.00
2023-04-25T07:10:42.235Z,1943.00
2023-04-25T07:11:42.270Z,2005.00
2023-04-25T07:12:42.441Z,1711.00
2023-04-25T07:13:42.201Z,1466.00
2023-04-25T07:14:42.185Z,1173.00
2023-04-25T07:15:42.192Z,1126.00
2023-04-25T07:16:42.289Z,1413.00
2023-04-25T07:17:42.211Z,1501.00
2023-04-25T07:18:42.137Z,1620.00
2023-04-25T07:19:42.306Z,1800.00
2023-04-25T07:20:42.128Z,1796.00
2023-04-25T07:21:42.218Z,1468.00
2023-04-25T07:22:42.130Z,1067.00
2023-04-25T07:23:42.103Z,1062.00
2023-04-25T07:24:42.120Z,1354.00
2023-04-25T07:25:42.106Z,1677.00
2023-04-25T07:26:42.150Z,1838.00
2023-04-25T07:27:42.112Z,1549.00
2023-04-25T07:28:42.075Z,1270.00
2023-04-25T07:29:42.063Z,1046.00
2023-04-25T07:30:42.291Z,921.00
2023-04-25T07:31:42.147Z,970.00
2023-04-25T07:32:42.035Z,1212.00
2023-04-25T07:33:42.023Z,1411.00
2023-04-25T07:34:42.045Z,1634.00
2023-04-25T07:35:42.003Z,2062.00
2023-04-25T07:36:42.032Z,2400.00
2023-04-25T07:37:41.958Z,2701.00
2023-04-25T07:38:42.025Z,2810.00
2023-04-25T07:39:41.948Z,2702.00
2023-04-25T07:40:41.956Z,2733.00
2023-04-25T07:41:41.980Z,3054.00
2023-04-25T07:42:41.922Z,3221.00
2023-04-25T07:43:41.934Z,3361.00
2023-04-25T07:44:41.918Z,3248.00
2023-04-25T07:45:41.963Z,2983.00
2023-04-25T07:46:41.850Z,3075.00
2023-04-25T07:47:41.884Z,3525.00
2023-04-25T07:48:41.846Z,4082.00
2023-04-25T07:49:41.933Z,4295.00
2023-04-25T07:50:41.896Z,4200.00
2023-04-25T07:51:41.840Z,4051.00
2023-04-25T07:52:41.829Z,4095.00
2023-04-25T07:53:41.796Z,4161.00
2023-04-25T07:54:41.835Z,4115.00
2023-04-25T07:55:41.778Z,3567.00
2023-04-25T07:56:52.287Z,2952.00
2023-04-25T07:57:42.770Z,2496.00
2023-04-25T07:58:41.735Z,2443.00
2023-04-25T07:59:41.793Z,3579.00
2023-04-25T08:00:41.762Z,4037.00
2023-04-25T08:01:41.737Z,3425.00
2023-04-25T08:02:41.764Z,3005.00
2023-04-25T08:03:42.021Z,2753.00
2023-04-25T08:04:41.919Z,2546.00
2023-04-25T08:05:41.785Z,2257.00
2023-04-25T08:06:41.745Z,1920.00
2023-04-25T08:07:41.675Z,1698.00
2023-04-25T08:08:41.666Z,1608.00
2023-04-25T08:09:41.660Z,1744.00
2023-04-25T08:10:41.634Z,2079.00
2023-04-25T08:11:41.669Z,2345.00
2023-04-25T08:12:41.634Z,2534.00
2023-04-25T08:13:41.705Z,3298.00
2023-04-25T08:14:41.592Z,4373.00
2023-04-25T08:15:41.619Z,5159.00
2023-04-25T08:16:41.589Z,5841.00
2023-04-25T08:17:41.692Z,6083.00
2023-04-25T08:18:41.540Z,6201.00
2023-04-25T08:19:41.538Z,6276.00
2023-04-25T08:20:41.539Z,6031.00
2023-04-25T08:21:41.507Z,5441.00
2023-04-25T08:22:41.651Z,4862.00
2023-04-25T08:23:41.501Z,4500.00
2023-04-25T08:24:41.493Z,4295.00
2023-04-25T08:25:41.470Z,4184.00
2023-04-25T08:26:41.510Z,4096.00
2023-04-25T08:27:41.489Z,4110.00
2023-04-25T08:28:41.532Z,3880.00
2023-04-25T08:29:41.484Z,3775.00
2023-04-25T08:30:41.480Z,4009.00
2023-04-25T08:31:41.477Z,4125.00
2023-04-25T08:32:41.617Z,4547.00
2023-04-25T08:33:41.508Z,5709.00
2023-04-25T08:34:41.418Z,7324.00
2023-04-25T08:35:41.451Z,7962.00
2023-04-25T08:36:41.434Z,7761.00
2023-04-25T08:37:41.461Z,7792.00
2023-04-25T08:38:41.500Z,7257.00
2023-04-25T08:39:41.363Z,7012.00
2023-04-25T08:40:41.350Z,6247.00
2023-04-25T08:41:41.322Z,5660.00
2023-04-25T08:42:41.424Z,5134.00
2023-04-25T08:43:41.279Z,4768.00
2023-04-25T08:44:41.299Z,4967.00
2023-04-25T08:45:41.368Z,4883.00
2023-04-25T08:46:41.441Z,5028.00
2023-04-25T08:47:41.323Z,5666.00
2023-04-25T08:48:41.333Z,5160.00
2023-04-25T08:49:41.271Z,5285.00
2023-04-25T08:50:41.248Z,5536.00
2023-04-25T08:51:41.220Z,5983.00
2023-04-25T08:52:41.239Z,5788.00
2023-04-25T08:53:41.227Z,5630.00
2023-04-25T08:54:42.017Z,5290.00
2023-04-25T08:55:41.165Z,5398.00
2023-04-25T08:56:41.183Z,5502.00
2023-04-25T08:57:41.135Z,5676.00
2023-04-25T08:58:41.203Z,5115.00
2023-04-25T08:59:41.162Z,3095.00
2023-04-25T09:00:41.224Z,7948.00
2023-04-25T09:01:41.236Z,11553.00
2023-04-25T09:02:41.321Z,11015.00
2023-04-25T09:03:41.204Z,8275.00
2023-04-25T09:04:41.169Z,8216.00
2023-04-25T09:05:41.136Z,7657.00
2023-04-25T09:06:41.157Z,7720.00
2023-04-25T09:07:41.035Z,7130.00
2023-04-25T09:08:41.122Z,6281.00
2023-04-25T09:09:41.064Z,6519.00
2023-04-25T09:10:41.046Z,8064.00
2023-04-25T09:11:40.992Z,10093.00
2023-04-25T09:12:40.993Z,6957.00
2023-04-25T09:13:40.995Z,8363.00
2023-04-25T09:14:41.014Z,4860.00
2023-04-25T09:15:40.959Z,8974.00
2023-04-25T09:16:41.676Z,11651.00
2023-04-25T09:17:41.007Z,4061.00
2023-04-25T09:19:42.599Z,11114.00
2023-04-25T09:21:41.098Z,2572.00
2023-04-25T09:22:40.928Z,9583.00
2023-04-25T09:23:41.091Z,13505.00
2023-04-25T09:24:40.889Z,7517.00
2023-04-25T09:25:40.875Z,7787.00
2023-04-25T09:26:40.836Z,7276.00
2023-04-25T09:27:40.923Z,7513.00
2023-04-25T09:28:40.810Z,9946.00
2023-04-25T09:29:40.851Z,7149.00
2023-04-25T09:30:40.845Z,7278.00
2023-04-25T09:31:41.011Z,7131.00
2023-04-25T09:32:41.026Z,7921.00
2023-04-25T09:33:40.795Z,2833.00
2023-04-25T09:34:40.835Z,14905.00
2023-04-25T09:35:40.847Z,10218.00
2023-04-25T09:36:40.818Z,8729.00
2023-04-25T09:37:40.743Z,7585.00
2023-04-25T09:38:40.727Z,7776.00
2023-04-25T09:39:40.828Z,8060.00
2023-04-25T09:40:40.758Z,7342.00
2023-04-25T09:41:41.663Z,7273.00
2023-04-25T09:42:40.708Z,2837.00
2023-04-25T09:43:40.662Z,14648.00
2023-04-25T09:44:40.674Z,9567.00
2023-04-25T09:45:40.714Z,6664.00
2023-04-25T09:46:40.721Z,6559.00
2023-04-25T09:47:40.697Z,6197.00
2023-04-25T09:48:40.750Z,6035.00
2023-04-25T09:49:40.668Z,5456.00
2023-04-25T09:50:40.588Z,4774.00
2023-04-25T09:51:40.576Z,4193.00
2023-04-25T09:52:40.607Z,4016.00
2023-04-25T09:53:40.689Z,4163.00
2023-04-25T09:54:40.611Z,4351.00
2023-04-25T09:55:40.605Z,4832.00
2023-04-25T09:56:40.527Z,5145.00
2023-04-25T09:57:40.544Z,5205.00
2023-04-25T09:58:40.580Z,5723.00
2023-04-25T09:59:40.533Z,5622.00
2023-04-25T10:00:40.677Z,5949.00
2023-04-25T10:01:40.559Z,6235.00
2023-04-25T10:02:40.673Z,6455.00
2023-04-25T10:03:40.645Z,6670.00
2023-04-25T10:04:40.547Z,6684.00
2023-04-25T10:05:40.489Z,6752.00
2023-04-25T10:06:40.478Z,6487.00
2023-04-25T10:07:40.500Z,6014.00
2023-04-25T10:08:40.561Z,5788.00
2023-04-25T10:09:40.434Z,6137.00
2023-04-25T10:10:40.392Z,5437.00
2023-04-25T10:11:40.422Z,9350.00
2023-04-25T10:12:40.380Z,7488.00
2023-04-25T10:13:40.421Z,8007.00
2023-04-25T10:14:40.382Z,8449.00
2023-04-25T10:15:40.618Z,8606.00
2023-04-25T10:16:40.417Z,8155.00
2023-04-25T10:17:40.423Z,7533.00
2023-04-25T10:18:40.390Z,7253.00
2023-04-25T10:19:40.337Z,7566.00
2023-04-25T10:20:40.314Z,7264.00
2023-04-25T10:21:40.302Z,7265.00
2023-04-25T10:22:40.267Z,6205.00
2023-04-25T10:23:40.288Z,5565.00
2023-04-25T10:24:40.250Z,5670.00
2023-04-25T10:25:40.267Z,6654.00
2023-04-25T10:26:40.373Z,6836.00
2023-04-25T10:27:40.252Z,7397.00
2023-04-25T10:28:40.208Z,6817.00
2023-04-25T10:29:40.352Z,6480.00
2023-04-25T10:30:40.323Z,6130.00
2023-04-25T10:31:40.264Z,5799.00
2023-04-25T10:32:40.193Z,5805.00
2023-04-25T10:33:40.172Z,6141.00
2023-04-25T10:34:40.161Z,6540.00
2023-04-25T10:35:40.225Z,6661.00
2023-04-25T10:36:40.181Z,6338.00
2023-04-25T10:37:40.854Z,6137.00
2023-04-25T10:38:40.164Z,5990.00
2023-04-25T10:39:40.118Z,5786.00
2023-04-25T10:40:40.167Z,5191.00
2023-04-25T10:41:40.072Z,4564.00
2023-04-25T10:42:40.093Z,4274.00
2023-04-25T10:43:40.109Z,4446.00
2023-04-25T10:44:40.039Z,4826.00
2023-04-25T10:45:40.064Z,5225.00
2023-04-25T10:46:40.080Z,5680.00
2023-04-25T10:47:40.089Z,5971.00
2023-04-25T10:48:40.199Z,6577.00
2023-04-25T10:49:40.230Z,6990.00
2023-04-25T10:50:39.979Z,7259.00
2023-04-25T10:51:51.375Z,7308.00
2023-04-25T10:52:41.016Z,7350.00
2023-04-25T10:53:39.962Z,7103.00
2023-04-25T10:54:40.658Z,7042.00
2023-04-25T10:55:39.989Z,7017.00
2023-04-25T10:56:39.934Z,6828.00
2023-04-25T10:57:40.084Z,6420.00
2023-04-25T10:58:39.937Z,6000.00
2023-04-25T10:59:39.959Z,5845.00
2023-04-25T11:00:48.219Z,5960.00
2023-04-25T11:01:40.960Z,6210.00
2023-04-25T11:02:40.014Z,6632.00
2023-04-25T11:03:39.960Z,6797.00
2023-04-25T11:04:40.094Z,7027.00
2023-04-25T11:05:50.868Z,7127.00
2023-04-25T11:06:40.879Z,6903.00
2023-04-25T11:07:39.817Z,6892.00
2023-04-25T11:08:39.814Z,6840.00
2023-04-25T11:09:39.779Z,8792.00
2023-04-25T11:10:39.802Z,7867.00
2023-04-25T11:11:39.776Z,7630.00
2023-04-25T11:12:39.761Z,7331.00
2023-04-25T11:13:39.860Z,7546.00
2023-04-25T11:15:39.732Z,7311.00
2023-04-25T11:16:39.823Z,6932.00
2023-04-25T11:17:39.869Z,6404.00
2023-04-25T11:18:39.719Z,5241.00
2023-04-25T11:19:39.720Z,4471.00
2023-04-25T11:20:39.718Z,3978.00
2023-04-25T11:21:39.674Z,3574.00
2023-04-25T11:22:39.692Z,3302.00
2023-04-25T11:23:40.475Z,3018.00
2023-04-25T11:24:39.673Z,2827.00
2023-04-25T11:25:39.654Z,2727.00
2023-04-25T11:26:39.675Z,2703.00
2023-04-25T11:27:39.649Z,2783.00
2023-04-25T11:28:39.622Z,2854.00
2023-04-25T11:29:39.593Z,3001.00
2023-04-25T11:30:39.587Z,3149.00
2023-04-25T11:31:39.681Z,3296.00
2023-04-25T11:32:39.743Z,3481.00
2023-04-25T11:33:39.596Z,3946.00
2023-04-25T11:34:39.595Z,4490.00
2023-04-25T11:35:39.535Z,4795.00
2023-04-25T11:36:39.546Z,4916.00
2023-04-25T11:37:39.524Z,4951.00
2023-04-25T11:38:39.510Z,5140.00
2023-04-25T11:39:39.534Z,5567.00
2023-04-25T11:40:39.503Z,5731.00
2023-04-25T11:41:39.538Z,5695.00
2023-04-25T11:42:39.471Z,5581.00
2023-04-25T11:43:40.805Z,5474.00
2023-04-25T11:44:39.473Z,5542.00
2023-04-25T11:45:39.444Z,5580.00
2023-04-25T11:46:39.502Z,5692.00
2023-04-25T11:47:39.484Z,5875.00
2023-04-25T11:48:39.444Z,6030.00
2023-04-25T11:49:39.389Z,6298.00
2023-04-25T11:50:39.393Z,6320.00
2023-04-25T11:51:39.421Z,6439.00
2023-04-25T11:52:39.350Z,6577.00
2023-04-25T11:53:39.342Z,6659.00
2023-04-25T11:54:39.401Z,6842.00
2023-04-25T11:55:39.408Z,6964.00
2023-04-25T11:56:39.393Z,6922.00
2023-04-25T11:57:40.304Z,6802.00
2023-04-25T11:58:39.342Z,6697.00
2023-04-25T11:59:39.293Z,6779.00
2023-04-25T12:00:39.364Z,6899.00
2023-04-25T12:01:39.436Z,7116.00
2023-04-25T12:02:39.354Z,7397.00
2023-04-25T12:03:39.461Z,7513.00
2023-04-25T12:04:39.499Z,7329.00
2023-04-25T12:05:39.612Z,7197.00
2023-04-25T12:06:39.294Z,6767.00
2023-04-25T12:07:39.254Z,6684.00
2023-04-25T12:08:39.221Z,6585.00
2023-04-25T12:09:39.544Z,6601.00
2023-04-25T12:10:39.203Z,6805.00
2023-04-25T12:11:40.832Z,6992.00
2023-04-25T12:12:39.625Z,7202.00
2023-04-25T12:13:39.200Z,7386.00
2023-04-25T12:14:39.166Z,7509.00
2023-04-25T12:15:39.182Z,7396.00
2023-04-25T12:16:39.241Z,7523.00
2023-04-25T12:17:39.234Z,7287.00
2023-04-25T12:18:39.945Z,7219.00
2023-04-25T12:19:39.184Z,6318.00
2023-04-25T12:20:39.091Z,5618.00
2023-04-25T12:21:54.023Z,4913.00
2023-04-25T12:22:40.048Z,4321.00
2023-04-25T12:23:39.052Z,3933.00
2023-04-25T12:24:39.643Z,3711.00
2023-04-25T12:25:39.199Z,3517.00
2023-04-25T12:26:39.011Z,3340.00
2023-04-25T12:27:39.016Z,3348.00
2023-04-25T12:28:39.070Z,3637.00
2023-04-25T12:29:49.329Z,4086.00
2023-04-25T12:30:41.864Z,4542.00
2023-04-25T12:31:38.995Z,5195.00
2023-04-25T12:32:39.003Z,5218.00